createdAt,value
2023-05-14T00:04:49.355Z,8.03
2023-05-14T00:09:52.465Z,8.01
2023-05-14T00:14:55.678Z,7.97
2023-05-14T00:19:59.713Z,7.89
2023-05-14T00:25:02.872Z,7.79
2023-05-14T00:30:09.688Z,7.71
2023-05-14T00:35:12.721Z,7.67
2023-05-14T00:40:16.140Z,7.59
2023-05-14T00:45:19.259Z,7.49
2023-05-14T00:50:23.349Z,7.47
2023-05-14T00:55:27.722Z,7.81
2023-05-14T01:00:31.239Z,8.20
2023-05-14T01:06:13.364Z,8.43
2023-05-14T01:11:29.267Z,8.00
2023-05-14T01:16:34.880Z,7.66
2023-05-14T01:21:41.093Z,7.48
2023-05-14T01:26:44.126Z,7.33
2023-05-14T01:31:49.113Z,7.18
2023-05-14T01:36:54.001Z,7.05
2023-05-14T01:41:57.419Z,6.94
2023-05-14T01:47:00.449Z,6.85
2023-05-14T01:52:03.666Z,6.79
2023-05-14T01:57:06.671Z,6.72
2023-05-14T02:02:09.675Z,6.62
2023-05-14T02:07:12.885Z,6.58
2023-05-14T02:12:15.899Z,6.57
2023-05-14T02:17:19.004Z,6.55
2023-05-14T02:22:21.905Z,6.53
2023-05-14T02:27:25.191Z,6.54
2023-05-14T02:32:28.615Z,6.51
2023-05-14T02:37:31.646Z,6.49
2023-05-14T02:42:35.743Z,6.39
2023-05-14T02:47:38.818Z,6.30
2023-05-14T02:52:41.795Z,6.24
2023-05-14T02:57:44.799Z,6.24
2023-05-14T03:02:47.891Z,6.28
2023-05-14T03:07:53.678Z,6.34
2023-05-14T03:12:56.790Z,6.43
2023-05-14T03:17:59.825Z,6.55
2023-05-14T03:23:02.901Z,7.03
2023-05-14T03:28:05.804Z,8.29
2023-05-14T03:33:08.733Z,9.43
2023-05-14T03:38:11.934Z,10.73
2023-05-14T03:43:15.151Z,12.23
2023-05-14T03:48:19.489Z,13.82
2023-05-14T03:53:22.577Z,15.70
2023-05-14T03:58:25.879Z,17.40
2023-05-14T04:03:28.987Z,18.91
2023-05-14T04:08:32.011Z,20.29
2023-05-14T04:13:34.910Z,21.39
2023-05-14T04:18:37.956Z,22.39
2023-05-14T04:23:41.034Z,23.08
2023-05-14T04:28:44.048Z,24.02
2023-05-14T04:33:47.142Z,24.95
2023-05-14T04:38:50.019Z,25.04
2023-05-14T04:43:56.670Z,25.35
2023-05-14T04:48:59.639Z,25.97
2023-05-14T04:54:02.779Z,26.80
2023-05-14T04:59:06.478Z,28.17
2023-05-14T05:04:09.557Z,29.32
2023-05-14T05:09:12.796Z,30.28
2023-05-14T05:14:15.806Z,31.09
2023-05-14T05:19:20.871Z,31.69
2023-05-14T05:24:25.440Z,31.64
2023-05-14T05:29:28.514Z,31.76
2023-05-14T05:34:31.821Z,32.10
2023-05-14T05:39:35.245Z,32.84
2023-05-14T05:44:38.469Z,33.38
2023-05-14T05:49:41.558Z,33.42
2023-05-14T05:54:44.667Z,33.20
2023-05-14T05:59:47.777Z,33.13
2023-05-14T06:04:51.021Z,33.00
2023-05-14T06:09:54.110Z,33.15
2023-05-14T06:14:58.126Z,33.68
2023-05-14T06:20:01.190Z,33.75
2023-05-14T06:25:05.409Z,33.22
2023-05-14T06:30:09.313Z,32.95
2023-05-14T06:35:12.311Z,33.55
2023-05-14T06:40:16.044Z,33.90
2023-05-14T06:45:19.035Z,34.12
2023-05-14T06:50:22.321Z,33.98
2023-05-14T06:55:25.560Z,33.78
2023-05-14T07:00:28.887Z,34.19
2023-05-14T07:05:32.289Z,34.43
2023-05-14T07:10:35.606Z,34.61
2023-05-14T07:15:38.747Z,34.75
2023-05-14T07:20:42.035Z,34.67
2023-05-14T07:25:45.252Z,34.81
2023-05-14T07:30:48.349Z,35.15
2023-05-14T07:35:52.123Z,35.47
2023-05-14T07:40:55.176Z,35.88
2023-05-14T07:45:58.393Z,35.53
2023-05-14T07:51:01.497Z,34.99
2023-05-14T07:56:05.218Z,34.46
2023-05-14T08:01:09.393Z,33.62
2023-05-14T08:06:12.774Z,32.66
2023-05-14T08:11:15.930Z,32.60
2023-05-14T08:16:19.125Z,32.00
2023-05-14T08:21:22.615Z,31.77
2023-05-14T08:26:26.129Z,31.81
2023-05-14T08:31:29.270Z,31.99
2023-05-14T08:36:33.208Z,31.57
2023-05-14T08:41:37.714Z,31.07
2023-05-14T08:46:42.154Z,30.29
2023-05-14T08:51:48.602Z,28.66
2023-05-14T08:56:52.566Z,27.11
2023-05-14T09:01:57.019Z,26.19
2023-05-14T09:07:02.040Z,25.37
2023-05-14T09:12:06.603Z,24.94
2023-05-14T09:17:09.710Z,24.92
2023-05-14T09:22:14.991Z,24.71
2023-05-14T09:27:21.534Z,24.56
2023-05-14T09:32:24.552Z,24.60
2023-05-14T09:37:28.778Z,24.68
2023-05-14T09:42:31.808Z,24.80
2023-05-14T09:47:35.108Z,24.90
2023-05-14T09:52:39.064Z,24.92
2023-05-14T09:57:42.433Z,25.18
2023-05-14T10:02:47.150Z,25.24
2023-05-14T10:07:53.551Z,25.14
2023-05-14T10:13:07.454Z,25.33
2023-05-14T10:18:12.977Z,25.75
2023-05-14T10:23:16.469Z,25.69
2023-05-14T10:28:19.652Z,25.56
2023-05-14T10:33:22.868Z,25.57
2023-05-14T10:38:30.754Z,25.47
2023-05-14T10:43:37.993Z,25.71
2023-05-14T10:48:44.649Z,26.15
2023-05-14T10:53:48.000Z,26.21
2023-05-14T10:58:51.104Z,26.21
2023-05-14T11:03:56.059Z,26.37
2023-05-14T11:09:01.740Z,26.29
2023-05-14T11:14:04.941Z,25.96
2023-05-14T11:19:08.084Z,25.87
2023-05-14T11:24:11.471Z,26.10
2023-05-14T11:29:14.476Z,26.03
2023-05-14T11:34:17.482Z,25.82
2023-05-14T11:39:20.505Z,25.49
2023-05-14T11:44:23.820Z,24.99
2023-05-14T11:49:29.318Z,24.45
2023-05-14T11:54:34.014Z,24.04
2023-05-14T11:59:37.455Z,23.77
2023-05-14T12:04:42.283Z,23.77
2023-05-14T12:09:50.902Z,23.88
2023-05-14T12:14:53.916Z,23.94
2023-05-14T12:19:57.770Z,23.90
2023-05-14T12:25:01.477Z,23.75
2023-05-14T12:30:20.613Z,23.60
2023-05-14T12:35:24.668Z,23.49
2023-05-14T12:40:27.797Z,23.44
2023-05-14T12:45:31.112Z,23.48
2023-05-14T12:50:34.216Z,23.60
2023-05-14T12:55:37.429Z,23.66
2023-05-14T13:00:40.483Z,23.52
2023-05-14T13:05:43.866Z,23.71
2023-05-14T13:10:48.093Z,24.36
2023-05-14T13:15:51.395Z,24.72
2023-05-14T13:20:54.520Z,24.94
2023-05-14T13:25:57.528Z,25.27
2023-05-14T13:31:10.897Z,25.28
2023-05-14T13:36:15.102Z,24.86
2023-05-14T13:41:18.617Z,24.43
2023-05-14T13:46:21.869Z,24.21
2023-05-14T13:51:25.153Z,24.37
2023-05-14T13:56:28.254Z,24.76
2023-05-14T14:01:31.971Z,25.04
2023-05-14T14:06:35.187Z,25.23
2023-05-14T14:11:38.198Z,25.34
2023-05-14T14:16:41.309Z,25.34
2023-05-14T14:21:45.242Z,25.34
2023-05-14T14:26:48.672Z,25.53
2023-05-14T14:31:53.573Z,25.69
2023-05-14T14:36:56.829Z,25.67
2023-05-14T14:42:00.043Z,25.53
2023-05-14T14:47:03.041Z,25.29
2023-05-14T14:52:06.347Z,25.00
2023-05-14T14:57:09.462Z,24.87
2023-05-14T15:02:12.755Z,24.80
2023-05-14T15:07:20.514Z,24.76
2023-05-14T15:12:23.625Z,24.90
2023-05-14T15:17:26.952Z,25.04
2023-05-14T15:22:30.034Z,25.15
2023-05-14T15:27:33.034Z,25.07
2023-05-14T15:32:36.174Z,24.86
2023-05-14T15:37:43.564Z,24.63
2023-05-14T15:42:47.174Z,24.49
2023-05-14T15:47:50.281Z,24.57
2023-05-14T15:52:53.851Z,24.68
2023-05-14T15:57:57.275Z,24.72
2023-05-14T16:03:00.439Z,24.61
2023-05-14T16:08:03.841Z,24.34
2023-05-14T16:13:06.842Z,24.16
2023-05-14T16:18:10.024Z,24.09
2023-05-14T16:23:13.184Z,24.02
2023-05-14T16:28:16.386Z,23.86
2023-05-14T16:33:19.496Z,23.66
2023-05-14T16:38:22.595Z,23.45
2023-05-14T16:43:25.737Z,23.23
2023-05-14T16:48:28.918Z,23.03
2023-05-14T16:53:31.924Z,22.86
2023-05-14T16:58:35.016Z,22.68
2023-05-14T17:03:37.931Z,22.58
2023-05-14T17:08:41.065Z,22.49
2023-05-14T17:13:44.160Z,22.49
2023-05-14T17:18:49.306Z,22.53
2023-05-14T17:23:52.457Z,22.56
2023-05-14T17:28:55.818Z,22.52
2023-05-14T17:33:59.233Z,22.40
2023-05-14T17:39:02.360Z,22.21
2023-05-14T17:44:05.348Z,21.96
2023-05-14T17:49:08.558Z,21.66
2023-05-14T17:54:11.684Z,21.35
2023-05-14T17:59:14.794Z,21.02
2023-05-14T18:04:17.803Z,20.70
2023-05-14T18:09:21.424Z,20.42
2023-05-14T18:14:24.434Z,20.16
2023-05-14T18:19:27.437Z,19.87
2023-05-14T18:24:30.759Z,19.60
2023-05-14T18:29:33.867Z,19.34
2023-05-14T18:34:36.873Z,19.04
2023-05-14T18:39:40.354Z,18.72
2023-05-14T18:44:44.833Z,18.34
2023-05-14T18:49:48.473Z,17.97
2023-05-14T18:54:51.769Z,17.63
2023-05-14T18:59:55.700Z,17.34
2023-05-14T19:04:58.702Z,17.04
2023-05-14T19:10:01.922Z,16.80
2023-05-14T19:15:05.872Z,16.60
2023-05-14T19:20:09.976Z,16.40
2023-05-14T19:25:13.273Z,16.17
2023-05-14T19:30:17.439Z,15.89
2023-05-14T19:35:21.133Z,15.69
2023-05-14T19:40:24.261Z,15.55
2023-05-14T19:45:27.563Z,15.49
2023-05-14T19:50:30.770Z,15.43
2023-05-14T19:55:33.888Z,15.36
2023-05-14T20:00:37.202Z,15.16
2023-05-14T20:05:41.026Z,14.91
2023-05-14T20:10:44.882Z,14.63
2023-05-14T20:15:48.285Z,14.35
2023-05-14T20:20:51.993Z,14.11
2023-05-14T20:25:55.220Z,13.89
2023-05-14T20:31:03.196Z,13.68
2023-05-14T20:36:06.818Z,13.46
2023-05-14T20:41:09.864Z,13.25
2023-05-14T20:46:12.961Z,13.08
2023-05-14T20:51:16.064Z,12.87
2023-05-14T20:56:19.079Z,12.71
2023-05-14T21:01:22.219Z,12.56
2023-05-14T21:06:25.485Z,12.40
2023-05-14T21:11:28.403Z,12.33
2023-05-14T21:16:31.786Z,12.24
2023-05-14T21:21:34.826Z,12.13
2023-05-14T21:26:38.135Z,11.97
2023-05-14T21:31:41.366Z,11.88
2023-05-14T21:36:44.565Z,11.83
2023-05-14T21:41:47.472Z,11.74
2023-05-14T21:46:50.582Z,11.66
2023-05-14T21:51:54.781Z,11.58
2023-05-14T21:56:57.814Z,11.53
2023-05-14T22:07:07.104Z,11.55
2023-05-14T22:12:10.106Z,11.58
2023-05-14T22:17:13.226Z,11.59
2023-05-14T22:22:16.327Z,11.61
2023-05-14T22:27:19.530Z,11.58
2023-05-14T22:32:22.770Z,11.56
2023-05-14T22:37:25.874Z,11.53
2023-05-14T22:42:28.966Z,11.50
2023-05-14T22:47:32.107Z,11.47
2023-05-14T22:52:35.183Z,11.43
2023-05-14T22:57:38.710Z,11.35
2023-05-14T23:02:41.828Z,11.26
2023-05-14T23:07:44.818Z,11.17
2023-05-14T23:12:47.721Z,11.09
2023-05-14T23:17:50.808Z,10.99
2023-05-14T23:22:54.350Z,10.92
2023-05-14T23:27:57.353Z,10.86
2023-05-14T23:33:00.996Z,10.78
2023-05-14T23:38:07.478Z,10.68
2023-05-14T23:43:10.368Z,10.60
2023-05-14T23:48:13.475Z,10.53
2023-05-14T23:53:17.710Z,10.45
2023-05-14T23:58:20.924Z,10.37
